createdAt,value
2024-05-09T00:00:29.778Z,14.41
2024-05-09T00:01:20.430Z,14.39
2024-05-09T00:02:20.381Z,14.41
2024-05-09T00:03:20.292Z,14.41
2024-05-09T00:04:20.252Z,14.38
2024-05-09T00:05:20.328Z,14.41
2024-05-09T00:06:20.203Z,14.41
2024-05-09T00:07:20.186Z,14.41
2024-05-09T00:08:20.215Z,14.30
2024-05-09T00:09:20.173Z,14.30
2024-05-09T00:10:28.806Z,14.30
2024-05-09T00:11:20.231Z,14.30
2024-05-09T00:12:20.234Z,14.26
2024-05-09T00:13:20.129Z,14.24
2024-05-09T00:14:20.151Z,14.26
2024-05-09T00:15:20.095Z,14.24
2024-05-09T00:16:20.091Z,14.24
2024-05-09T00:17:20.140Z,14.24
2024-05-09T00:18:20.253Z,14.19
2024-05-09T00:19:20.221Z,14.12
2024-05-09T00:20:24.616Z,14.13
2024-05-09T00:21:20.031Z,14.16
2024-05-09T00:22:20.027Z,14.16
2024-05-09T00:23:20.086Z,14.17
2024-05-09T00:24:19.984Z,14.17
2024-05-09T00:25:19.981Z,14.11
2024-05-09T00:26:20.011Z,14.06
2024-05-09T00:27:19.964Z,14.01
2024-05-09T00:28:19.948Z,13.96
2024-05-09T00:29:19.980Z,13.91
2024-05-09T00:30:27.961Z,13.94
2024-05-09T00:31:19.924Z,13.96
2024-05-09T00:32:20.025Z,13.96
2024-05-09T00:33:20.096Z,13.91
2024-05-09T00:34:19.988Z,13.87
2024-05-09T00:35:19.911Z,13.91
2024-05-09T00:36:19.850Z,13.93
2024-05-09T00:37:19.845Z,13.94
2024-05-09T00:38:19.879Z,13.94
2024-05-09T00:39:19.820Z,13.98
2024-05-09T00:40:30.696Z,13.96
2024-05-09T00:41:20.096Z,13.94
2024-05-09T00:42:19.790Z,13.88
2024-05-09T00:43:19.756Z,13.86
2024-05-09T00:44:19.856Z,13.83
2024-05-09T00:45:19.738Z,13.79
2024-05-09T00:46:19.738Z,13.80
2024-05-09T00:47:19.783Z,13.83
2024-05-09T00:48:21.467Z,13.81
2024-05-09T00:49:19.817Z,13.84
2024-05-09T00:50:25.949Z,13.84
2024-05-09T00:51:19.713Z,13.84
2024-05-09T00:52:19.657Z,13.80
2024-05-09T00:53:19.713Z,13.83
2024-05-09T00:54:19.629Z,13.84
2024-05-09T00:55:19.618Z,13.83
2024-05-09T00:56:19.646Z,13.79
2024-05-09T00:57:19.623Z,13.69
2024-05-09T00:58:19.604Z,13.68
2024-05-09T00:59:19.629Z,13.71
2024-05-09T01:00:27.138Z,13.72
2024-05-09T01:01:19.593Z,13.72
2024-05-09T01:02:19.627Z,13.69
2024-05-09T01:03:20.189Z,13.72
2024-05-09T01:04:19.562Z,13.72
2024-05-09T01:05:19.528Z,13.73
2024-05-09T01:06:19.509Z,13.71
2024-05-09T01:07:19.474Z,13.71
2024-05-09T01:08:19.544Z,13.68
2024-05-09T01:09:19.473Z,13.68
2024-05-09T01:10:27.599Z,13.65
2024-05-09T01:11:19.630Z,13.68
2024-05-09T01:12:19.563Z,13.69
2024-05-09T01:13:19.405Z,13.71
2024-05-09T01:14:19.481Z,13.71
2024-05-09T01:15:19.409Z,13.69
2024-05-09T01:16:19.392Z,13.68
2024-05-09T01:17:19.446Z,13.66
2024-05-09T01:18:19.567Z,13.66
2024-05-09T01:19:19.531Z,13.63
2024-05-09T01:20:23.056Z,13.63
2024-05-09T01:21:19.440Z,13.61
2024-05-09T01:22:19.309Z,13.62
2024-05-09T01:23:19.328Z,13.61
2024-05-09T01:24:19.301Z,13.55
2024-05-09T01:25:19.276Z,13.55
2024-05-09T01:26:19.336Z,13.50
2024-05-09T01:27:19.280Z,13.50
2024-05-09T01:28:19.250Z,13.43
2024-05-09T01:29:19.322Z,13.43
2024-05-09T01:30:24.338Z,13.43
2024-05-09T01:31:19.230Z,13.43
2024-05-09T01:32:19.334Z,13.46
2024-05-09T01:33:19.381Z,13.44
2024-05-09T01:34:19.246Z,13.44
2024-05-09T01:35:19.226Z,13.43
2024-05-09T01:36:19.141Z,13.44
2024-05-09T01:37:19.158Z,13.47
2024-05-09T01:38:19.186Z,13.46
2024-05-09T01:39:19.125Z,13.47
2024-05-09T01:40:25.297Z,13.46
2024-05-09T01:41:19.183Z,13.39
2024-05-09T01:42:19.081Z,13.36
2024-05-09T01:43:19.069Z,13.38
2024-05-09T01:44:19.145Z,13.38
2024-05-09T01:45:19.072Z,13.32
2024-05-09T01:46:19.033Z,13.35
2024-05-09T01:47:19.133Z,13.29
2024-05-09T01:48:19.176Z,13.24
2024-05-09T01:49:19.260Z,13.22
2024-05-09T01:50:28.835Z,13.19
2024-05-09T01:51:19.037Z,13.17
2024-05-09T01:52:18.978Z,13.17
2024-05-09T01:53:19.026Z,13.14
2024-05-09T01:54:18.979Z,13.13
2024-05-09T01:55:18.952Z,13.10
2024-05-09T01:56:19.011Z,13.10
2024-05-09T01:57:18.922Z,13.09
2024-05-09T01:58:18.904Z,13.10
2024-05-09T01:59:18.995Z,13.09
2024-05-09T02:00:30.025Z,13.07
2024-05-09T02:01:18.940Z,13.06
2024-05-09T02:02:19.148Z,13.01
2024-05-09T02:03:19.027Z,13.03
2024-05-09T02:04:19.094Z,12.99
2024-05-09T02:05:19.051Z,12.99
2024-05-09T02:06:18.854Z,12.98
2024-05-09T02:07:18.821Z,12.96
2024-05-09T02:08:19.383Z,12.96
2024-05-09T02:09:18.779Z,12.98
2024-05-09T02:10:26.018Z,12.98
2024-05-09T02:11:18.842Z,12.98
2024-05-09T02:12:19.025Z,13.01
2024-05-09T02:13:18.794Z,13.01
2024-05-09T02:14:18.789Z,13.01
2024-05-09T02:15:18.694Z,12.98
2024-05-09T02:16:18.715Z,12.98
2024-05-09T02:17:18.734Z,12.95
2024-05-09T02:18:18.860Z,12.95
2024-05-09T02:19:18.863Z,12.95
2024-05-09T02:20:27.169Z,12.94
2024-05-09T02:21:18.672Z,12.92
2024-05-09T02:22:18.628Z,12.92
2024-05-09T02:23:18.687Z,12.89
2024-05-09T02:24:18.595Z,12.89
2024-05-09T02:25:18.614Z,12.85
2024-05-09T02:26:18.704Z,12.85
2024-05-09T02:27:18.593Z,12.77
2024-05-09T02:28:18.571Z,12.74
2024-05-09T02:29:18.589Z,12.73
2024-05-09T02:30:25.992Z,12.69
2024-05-09T02:31:18.519Z,12.66
2024-05-09T02:32:18.636Z,12.66
2024-05-09T02:33:18.682Z,12.63
2024-05-09T02:34:18.595Z,12.62
2024-05-09T02:35:18.609Z,12.61
2024-05-09T02:36:18.479Z,12.58
2024-05-09T02:37:18.460Z,12.58
2024-05-09T02:38:18.490Z,12.55
2024-05-09T02:39:18.453Z,12.51
2024-05-09T02:40:25.417Z,12.51
2024-05-09T02:41:18.489Z,12.48
2024-05-09T02:42:18.411Z,12.46
2024-05-09T02:43:18.397Z,12.44
2024-05-09T02:44:18.420Z,12.46
2024-05-09T02:45:18.360Z,12.46
2024-05-09T02:46:18.363Z,12.46
2024-05-09T02:47:18.454Z,12.44
2024-05-09T02:48:18.494Z,12.41
2024-05-09T02:49:18.519Z,12.40
2024-05-09T02:50:26.571Z,12.40
2024-05-09T02:51:18.330Z,12.38
2024-05-09T02:52:18.287Z,12.38
2024-05-09T02:53:18.369Z,12.37
2024-05-09T02:54:18.268Z,12.37
2024-05-09T02:55:18.250Z,12.37
2024-05-09T02:56:18.260Z,12.37
2024-05-09T02:57:18.219Z,12.38
2024-05-09T02:58:18.229Z,12.36
2024-05-09T02:59:18.283Z,12.37
2024-05-09T03:00:22.926Z,12.37
2024-05-09T03:01:18.220Z,12.36
2024-05-09T03:02:18.280Z,12.37
2024-05-09T03:03:18.425Z,12.36
2024-05-09T03:04:18.203Z,12.37
2024-05-09T03:05:18.190Z,12.34
2024-05-09T03:06:18.137Z,12.33
2024-05-09T03:07:20.224Z,12.31
2024-05-09T03:08:18.308Z,12.29
2024-05-09T03:09:18.099Z,12.25
2024-05-09T03:10:22.563Z,12.19
2024-05-09T03:11:18.143Z,12.16
2024-05-09T03:12:18.111Z,12.12
2024-05-09T03:13:18.050Z,12.12
2024-05-09T03:14:18.144Z,12.11
2024-05-09T03:15:18.031Z,12.07
2024-05-09T03:16:18.025Z,12.05
2024-05-09T03:17:18.100Z,12.03
2024-05-09T03:18:18.067Z,12.00
2024-05-09T03:19:18.239Z,11.98
2024-05-09T03:20:23.740Z,11.96
2024-05-09T03:21:17.980Z,11.97
2024-05-09T03:22:17.960Z,11.97
2024-05-09T03:23:17.974Z,11.96
2024-05-09T03:24:17.936Z,11.96
2024-05-09T03:25:17.918Z,11.94
2024-05-09T03:26:17.930Z,11.90
2024-05-09T03:27:17.914Z,11.88
2024-05-09T03:28:17.886Z,11.90
2024-05-09T03:29:17.913Z,11.88
2024-05-09T03:30:29.282Z,11.87
2024-05-09T03:31:17.844Z,11.85
2024-05-09T03:32:17.880Z,11.82
2024-05-09T03:33:19.764Z,11.79
2024-05-09T03:34:17.836Z,11.79
2024-05-09T03:35:17.891Z,11.78
2024-05-09T03:36:17.814Z,11.77
2024-05-09T03:37:17.796Z,11.74
2024-05-09T03:38:18.035Z,11.75
2024-05-09T03:39:17.769Z,11.72
2024-05-09T03:40:23.439Z,11.74
2024-05-09T03:41:17.743Z,11.70
2024-05-09T03:42:17.722Z,11.69
2024-05-09T03:43:17.725Z,11.69
2024-05-09T03:44:17.736Z,11.66
2024-05-09T03:45:17.709Z,11.64
2024-05-09T03:46:17.683Z,11.64
2024-05-09T03:47:17.821Z,11.60
2024-05-09T03:48:17.989Z,11.57
2024-05-09T03:49:17.865Z,11.59
2024-05-09T03:50:22.894Z,11.56
2024-05-09T03:51:17.667Z,11.56
2024-05-09T03:52:17.622Z,11.53
2024-05-09T03:53:17.666Z,11.49
2024-05-09T03:54:17.571Z,11.51
2024-05-09T03:55:17.581Z,11.49
2024-05-09T03:56:17.593Z,11.53
2024-05-09T03:57:17.554Z,11.51
2024-05-09T03:58:17.537Z,11.53
2024-05-09T03:59:17.594Z,11.49
2024-05-09T04:00:22.745Z,11.46
2024-05-09T04:01:17.563Z,11.45
2024-05-09T04:02:17.575Z,11.45
2024-05-09T04:03:17.599Z,11.42
2024-05-09T04:04:17.510Z,11.44
2024-05-09T04:05:17.564Z,11.42
2024-05-09T04:06:17.458Z,11.44
2024-05-09T04:07:17.474Z,11.41
2024-05-09T04:08:17.482Z,11.41
2024-05-09T04:09:17.425Z,11.42
2024-05-09T04:10:27.302Z,11.41
2024-05-09T04:11:17.586Z,11.41
2024-05-09T04:12:17.492Z,11.44
2024-05-09T04:13:17.377Z,11.45
2024-05-09T04:14:17.409Z,11.45
2024-05-09T04:15:17.365Z,11.46
2024-05-09T04:16:17.337Z,11.45
2024-05-09T04:17:17.403Z,11.48
2024-05-09T04:18:17.382Z,11.49
2024-05-09T04:19:17.611Z,11.51
2024-05-09T04:20:28.711Z,11.51
2024-05-09T04:21:17.334Z,11.48
2024-05-09T04:22:17.260Z,11.46
2024-05-09T04:23:17.309Z,11.46
2024-05-09T04:24:17.245Z,11.49
2024-05-09T04:25:17.236Z,11.51
2024-05-09T04:26:17.249Z,11.53
2024-05-09T04:27:17.212Z,11.56
2024-05-09T04:28:17.198Z,11.59
2024-05-09T04:29:17.265Z,11.59
2024-05-09T04:30:25.560Z,11.62
2024-05-09T04:31:17.179Z,11.62
2024-05-09T04:32:17.326Z,11.62
2024-05-09T04:33:17.251Z,11.63
2024-05-09T04:34:17.454Z,11.66
2024-05-09T04:35:17.147Z,11.69
2024-05-09T04:36:17.123Z,11.69
2024-05-09T04:37:17.107Z,11.74
2024-05-09T04:38:17.210Z,11.75
2024-05-09T04:39:17.081Z,11.79
2024-05-09T04:40:24.356Z,11.82
2024-05-09T04:41:17.097Z,11.82
2024-05-09T04:42:17.205Z,11.82
2024-05-09T04:43:17.075Z,11.84
2024-05-09T04:44:17.082Z,11.87
2024-05-09T04:45:17.000Z,11.90
2024-05-09T04:46:17.023Z,11.93
2024-05-09T04:47:17.107Z,11.94
2024-05-09T04:48:17.312Z,11.97
2024-05-09T04:49:17.072Z,12.01
2024-05-09T04:50:24.681Z,12.03
2024-05-09T04:51:16.977Z,12.07
2024-05-09T04:52:16.915Z,12.08
2024-05-09T04:53:17.208Z,12.13
2024-05-09T04:54:26.412Z,12.16
2024-05-09T04:55:16.911Z,12.19
2024-05-09T04:56:16.978Z,12.23
2024-05-09T04:57:16.882Z,12.26
2024-05-09T04:58:16.872Z,12.30
2024-05-09T04:59:16.966Z,12.33
2024-05-09T05:00:21.908Z,12.36
2024-05-09T05:01:16.842Z,12.37
2024-05-09T05:02:17.016Z,12.37
2024-05-09T05:03:17.349Z,12.38
2024-05-09T05:04:17.001Z,12.44
2024-05-09T05:05:16.989Z,12.51
2024-05-09T05:06:16.765Z,12.56
2024-05-09T05:07:16.757Z,12.58
2024-05-09T05:08:17.969Z,12.61
2024-05-09T05:09:16.744Z,12.66
2024-05-09T05:10:21.621Z,12.71
2024-05-09T05:11:16.912Z,12.76
2024-05-09T05:12:16.797Z,12.80
2024-05-09T05:13:18.151Z,12.81
2024-05-09T05:14:16.767Z,12.80
2024-05-09T05:15:16.676Z,12.84
2024-05-09T05:16:16.712Z,12.88
2024-05-09T05:17:16.670Z,12.94
2024-05-09T05:18:16.959Z,12.99
2024-05-09T05:19:17.723Z,13.04
2024-05-09T05:20:24.475Z,13.10
2024-05-09T05:21:16.659Z,13.14
2024-05-09T05:22:16.594Z,13.22
2024-05-09T05:23:16.936Z,13.28
2024-05-09T05:24:16.564Z,13.28
2024-05-09T05:25:16.555Z,13.32
2024-05-09T05:26:16.605Z,13.35
2024-05-09T05:27:16.543Z,13.39
2024-05-09T05:28:16.551Z,13.44
2024-05-09T05:29:20.195Z,13.43
2024-05-09T05:30:21.321Z,13.41
2024-05-09T05:31:16.520Z,13.46
2024-05-09T05:32:16.688Z,13.48
2024-05-09T05:33:16.582Z,13.48
2024-05-09T05:34:16.467Z,13.53
2024-05-09T05:35:16.525Z,13.54
2024-05-09T05:36:16.447Z,13.51
2024-05-09T05:37:16.410Z,13.48
2024-05-09T05:38:16.539Z,13.57
2024-05-09T05:39:16.395Z,13.55
2024-05-09T05:40:25.384Z,13.54
2024-05-09T05:41:16.546Z,13.54
2024-05-09T05:42:16.352Z,13.55
2024-05-09T05:43:16.358Z,13.62
2024-05-09T05:44:16.369Z,13.63
2024-05-09T05:45:16.352Z,13.68
2024-05-09T05:46:16.387Z,13.80
2024-05-09T05:47:16.415Z,13.87
2024-05-09T05:48:17.294Z,13.86
2024-05-09T05:49:16.451Z,13.75
2024-05-09T05:50:24.608Z,13.86
2024-05-09T05:51:16.455Z,13.87
2024-05-09T05:52:16.261Z,13.99
2024-05-09T05:53:16.387Z,14.02
2024-05-09T05:54:16.228Z,14.05
2024-05-09T05:55:16.241Z,13.98
2024-05-09T05:56:16.233Z,14.05
2024-05-09T05:57:16.212Z,14.11
2024-05-09T05:58:16.166Z,14.19
2024-05-09T05:59:16.181Z,14.20
2024-05-09T06:00:25.997Z,14.16
2024-05-09T06:01:16.183Z,14.13
2024-05-09T06:02:16.298Z,14.26
2024-05-09T06:03:16.355Z,14.38
2024-05-09T06:04:16.135Z,14.48
2024-05-09T06:05:16.139Z,14.56
2024-05-09T06:06:16.081Z,14.63
2024-05-09T06:07:16.078Z,14.71
2024-05-09T06:08:16.128Z,14.75
2024-05-09T06:09:16.074Z,14.86
2024-05-09T06:10:21.473Z,14.97
2024-05-09T06:11:16.120Z,15.07
2024-05-09T06:12:16.140Z,15.12
2024-05-09T06:13:16.011Z,15.01
2024-05-09T06:14:16.054Z,15.05
2024-05-09T06:15:15.991Z,15.07
2024-05-09T06:16:15.959Z,15.13
2024-05-09T06:17:16.084Z,15.18
2024-05-09T06:18:16.134Z,15.30
2024-05-09T06:19:16.053Z,15.38
2024-05-09T06:20:20.796Z,15.46
2024-05-09T06:21:16.085Z,15.49
2024-05-09T06:22:15.891Z,15.51
2024-05-09T06:23:15.947Z,15.55
2024-05-09T06:24:15.896Z,15.43
2024-05-09T06:25:15.871Z,15.12
2024-05-09T06:26:15.908Z,15.13
2024-05-09T06:27:15.843Z,15.03
2024-05-09T06:28:15.824Z,15.07
2024-05-09T06:29:15.861Z,15.18
2024-05-09T06:30:25.680Z,15.33
2024-05-09T06:31:15.802Z,15.52
2024-05-09T06:32:15.884Z,15.30
2024-05-09T06:33:16.753Z,15.40
2024-05-09T06:34:15.963Z,15.51
2024-05-09T06:35:15.797Z,15.58
2024-05-09T06:36:15.739Z,15.60
2024-05-09T06:37:15.752Z,15.59
2024-05-09T06:38:15.773Z,15.35
2024-05-09T06:39:15.712Z,15.37
2024-05-09T06:40:21.205Z,15.38
2024-05-09T06:41:15.785Z,15.40
2024-05-09T06:42:15.690Z,15.64
2024-05-09T06:43:17.968Z,15.84
2024-05-09T06:44:15.703Z,15.92
2024-05-09T06:45:15.688Z,16.04
2024-05-09T06:46:15.647Z,16.18
2024-05-09T06:47:15.760Z,16.32
2024-05-09T06:48:15.765Z,16.32
2024-05-09T06:49:15.884Z,16.18
2024-05-09T06:50:23.378Z,16.23
2024-05-09T06:51:15.713Z,16.34
2024-05-09T06:52:15.574Z,16.52
2024-05-09T06:53:15.709Z,16.54
2024-05-09T06:54:15.552Z,16.55
2024-05-09T06:55:15.559Z,16.52
2024-05-09T06:56:15.577Z,16.57
2024-05-09T06:57:15.526Z,16.65
2024-05-09T06:58:15.530Z,16.75
2024-05-09T06:59:15.585Z,16.95
2024-05-09T07:00:22.866Z,17.09
2024-05-09T07:01:15.489Z,17.21
2024-05-09T07:02:15.605Z,17.22
2024-05-09T07:03:17.617Z,17.24
2024-05-09T07:04:15.708Z,17.30
2024-05-09T07:05:15.510Z,17.00
2024-05-09T07:06:15.472Z,16.63
2024-05-09T07:07:15.394Z,16.63
2024-05-09T07:08:15.418Z,16.84
2024-05-09T07:09:15.384Z,17.06
2024-05-09T07:10:22.018Z,17.24
2024-05-09T07:11:15.474Z,17.33
2024-05-09T07:12:15.535Z,17.43
2024-05-09T07:13:15.781Z,17.51
2024-05-09T07:14:15.334Z,17.54
2024-05-09T07:15:15.303Z,17.63
2024-05-09T07:16:15.316Z,17.62
2024-05-09T07:17:15.334Z,17.71
2024-05-09T07:18:16.681Z,17.73
2024-05-09T07:19:15.563Z,17.74
2024-05-09T07:20:23.157Z,17.71
2024-05-09T07:21:15.467Z,17.63
2024-05-09T07:22:15.244Z,17.74
2024-05-09T07:23:15.545Z,17.86
2024-05-09T07:24:15.195Z,18.02
2024-05-09T07:25:15.191Z,17.77
2024-05-09T07:26:15.259Z,17.66
2024-05-09T07:27:15.177Z,17.74
2024-05-09T07:28:15.187Z,17.92
2024-05-09T07:29:15.194Z,18.09
2024-05-09T07:30:22.920Z,18.25
2024-05-09T07:31:15.115Z,18.31
2024-05-09T07:32:15.154Z,18.19
2024-05-09T07:33:15.367Z,18.16
2024-05-09T07:34:15.268Z,18.14
2024-05-09T07:35:15.096Z,18.29
2024-05-09T07:36:15.097Z,18.36
2024-05-09T07:37:15.084Z,18.50
2024-05-09T07:38:15.155Z,18.66
2024-05-09T07:39:15.040Z,18.78
2024-05-09T07:40:24.496Z,18.76
2024-05-09T07:41:15.103Z,18.51
2024-05-09T07:42:14.991Z,18.51
2024-05-09T07:43:15.221Z,18.46
2024-05-09T07:44:15.028Z,18.44
2024-05-09T07:45:30.098Z,18.44
2024-05-09T07:48:28.870Z,18.34
2024-05-09T07:52:22.599Z,18.31
2024-05-09T07:53:42.210Z,18.57
2024-05-09T07:53:53.520Z,18.11
2024-05-09T07:54:45.215Z,18.09
2024-05-09T07:55:45.175Z,18.28
2024-05-09T07:56:45.138Z,18.46
2024-05-09T07:57:45.045Z,18.74
2024-05-09T07:58:45.025Z,19.01
2024-05-09T07:59:44.994Z,19.24
2024-05-09T08:00:45.139Z,19.42
2024-05-09T08:01:45.142Z,19.21
2024-05-09T08:02:45.004Z,18.86
2024-05-09T08:03:45.298Z,18.82
2024-05-09T08:04:45.016Z,18.59
2024-05-09T08:05:44.962Z,18.60
2024-05-09T08:06:44.954Z,18.74
2024-05-09T08:07:44.930Z,19.06
2024-05-09T08:08:44.887Z,18.96
2024-05-09T08:09:44.938Z,18.94
2024-05-09T08:10:44.923Z,18.79
2024-05-09T08:11:44.944Z,19.05
2024-05-09T08:12:44.890Z,19.09
2024-05-09T08:13:44.830Z,19.13
2024-05-09T08:14:44.822Z,19.02
2024-05-09T08:15:45.047Z,18.89
2024-05-09T08:16:44.799Z,18.54
2024-05-09T08:17:44.889Z,18.46
2024-05-09T08:18:44.879Z,18.71
2024-05-09T08:19:44.808Z,18.99
2024-05-09T08:20:44.747Z,18.93
2024-05-09T08:21:45.752Z,19.09
2024-05-09T08:22:44.729Z,19.38
2024-05-09T08:23:44.717Z,19.21
2024-05-09T08:24:44.723Z,19.21
2024-05-09T08:25:44.689Z,19.34
2024-05-09T08:26:44.694Z,19.53
2024-05-09T08:27:44.740Z,19.61
2024-05-09T08:28:44.654Z,19.70
2024-05-09T08:29:44.719Z,19.67
2024-05-09T08:30:44.947Z,19.87
2024-05-09T08:31:44.749Z,20.00
2024-05-09T08:32:44.728Z,19.68
2024-05-09T08:33:44.780Z,19.76
2024-05-09T08:34:44.711Z,20.00
2024-05-09T08:35:44.590Z,20.19
2024-05-09T08:36:44.629Z,20.40
2024-05-09T08:37:44.618Z,20.63
2024-05-09T08:38:44.560Z,20.69
2024-05-09T08:39:44.581Z,20.81
2024-05-09T08:40:44.753Z,20.85
2024-05-09T08:41:44.518Z,20.97
2024-05-09T08:42:44.928Z,20.93
2024-05-09T08:43:44.499Z,21.13
2024-05-09T08:44:44.503Z,21.34
2024-05-09T08:45:45.447Z,21.38
2024-05-09T08:46:44.448Z,21.37
2024-05-09T08:47:44.589Z,21.34
2024-05-09T08:48:44.728Z,20.98
2024-05-09T08:49:44.478Z,20.71
2024-05-09T08:50:45.546Z,20.61
2024-05-09T08:51:44.473Z,20.73
2024-05-09T08:52:44.376Z,20.63
2024-05-09T08:53:44.391Z,20.69
2024-05-09T08:54:44.426Z,20.96
2024-05-09T08:55:44.760Z,20.97
2024-05-09T08:56:44.358Z,21.30
2024-05-09T08:57:44.441Z,21.46
2024-05-09T08:58:44.314Z,21.31
2024-05-09T08:59:44.305Z,21.26
2024-05-09T09:00:45.287Z,21.34
2024-05-09T09:01:44.514Z,21.24
2024-05-09T09:02:44.721Z,21.08
2024-05-09T09:03:44.450Z,21.16
2024-05-09T09:04:44.447Z,21.45
2024-05-09T09:05:44.282Z,21.61
2024-05-09T09:06:44.480Z,21.73
2024-05-09T09:07:44.219Z,21.82
2024-05-09T09:08:44.197Z,22.02
2024-05-09T09:09:44.363Z,22.15
2024-05-09T09:10:44.282Z,22.29
2024-05-09T09:11:44.272Z,22.36
2024-05-09T09:12:44.321Z,22.45
2024-05-09T09:13:44.153Z,22.48
2024-05-09T09:14:44.135Z,21.79
2024-05-09T09:15:44.185Z,20.96
2024-05-09T09:16:44.104Z,21.15
2024-05-09T09:17:44.217Z,21.36
2024-05-09T09:18:44.337Z,21.63
2024-05-09T09:19:44.117Z,21.96
2024-05-09T09:20:44.269Z,22.21
2024-05-09T09:21:44.120Z,22.26
2024-05-09T09:22:44.061Z,22.38
2024-05-09T09:23:44.061Z,22.27
2024-05-09T09:24:44.069Z,22.04
2024-05-09T09:25:44.014Z,22.15
2024-05-09T09:26:43.999Z,22.41
2024-05-09T09:27:44.049Z,22.72
2024-05-09T09:28:43.966Z,22.93
2024-05-09T09:29:43.985Z,23.06
2024-05-09T09:30:44.049Z,23.19
2024-05-09T09:31:43.981Z,23.12
2024-05-09T09:32:44.014Z,23.06
2024-05-09T09:33:44.184Z,22.99
2024-05-09T09:34:43.999Z,22.82
2024-05-09T09:35:43.940Z,22.78
2024-05-09T09:36:44.019Z,22.63
2024-05-09T09:37:43.876Z,22.41
2024-05-09T09:38:43.916Z,22.44
2024-05-09T09:39:43.916Z,22.41
2024-05-09T09:40:48.298Z,22.42
2024-05-09T09:41:43.893Z,22.46
2024-05-09T09:42:43.855Z,22.36
2024-05-09T09:43:43.813Z,22.29
2024-05-09T09:44:47.762Z,22.24
2024-05-09T09:45:43.989Z,22.33
2024-05-09T09:46:43.803Z,22.60
2024-05-09T09:47:43.859Z,22.54
2024-05-09T09:48:43.868Z,22.61
2024-05-09T09:49:43.812Z,22.64
2024-05-09T09:50:43.730Z,22.45
2024-05-09T09:51:43.899Z,22.06
2024-05-09T09:52:43.725Z,22.05
2024-05-09T09:53:43.689Z,21.91
2024-05-09T09:54:43.704Z,21.79
2024-05-09T09:55:43.667Z,21.83
2024-05-09T09:56:43.679Z,22.11
2024-05-09T09:57:43.804Z,22.35
2024-05-09T09:58:43.649Z,22.23
2024-05-09T09:59:43.645Z,21.79
2024-05-09T10:00:43.932Z,21.89
2024-05-09T10:01:43.734Z,22.12
2024-05-09T10:02:43.699Z,22.39
2024-05-09T10:03:43.725Z,22.19
2024-05-09T10:04:43.737Z,22.38
2024-05-09T10:05:46.314Z,22.52
2024-05-09T10:06:43.598Z,22.76
2024-05-09T10:07:43.555Z,22.86
2024-05-09T10:08:43.522Z,22.88
2024-05-09T10:09:43.583Z,22.76
2024-05-09T10:10:43.884Z,22.88
2024-05-09T10:11:49.109Z,22.86
2024-05-09T10:12:43.525Z,23.12
2024-05-09T10:13:43.504Z,23.25
2024-05-09T10:14:43.455Z,23.38
2024-05-09T10:15:43.496Z,23.62
2024-05-09T10:16:43.451Z,23.78
2024-05-09T10:17:43.540Z,24.00
2024-05-09T10:18:43.786Z,23.84
2024-05-09T10:19:43.439Z,23.75
2024-05-09T10:20:43.400Z,23.93
2024-05-09T10:21:43.495Z,24.00
2024-05-09T10:22:43.386Z,23.63
2024-05-09T10:23:43.371Z,23.56
2024-05-09T10:24:43.415Z,23.53
2024-05-09T10:25:43.362Z,23.71
2024-05-09T10:26:43.362Z,23.96
2024-05-09T10:27:43.334Z,23.96
2024-05-09T10:28:43.356Z,23.89
2024-05-09T10:29:43.332Z,23.72
2024-05-09T10:30:43.456Z,23.60
2024-05-09T10:31:43.487Z,23.59
2024-05-09T10:32:43.442Z,23.23
2024-05-09T10:33:43.399Z,23.25
2024-05-09T10:34:43.422Z,22.79
2024-05-09T10:35:43.224Z,22.51
2024-05-09T10:36:43.354Z,22.70
2024-05-09T10:37:43.218Z,22.99
2024-05-09T10:38:43.319Z,23.03
2024-05-09T10:39:43.307Z,23.44
2024-05-09T10:40:43.295Z,23.87
2024-05-09T10:41:43.166Z,24.09
2024-05-09T10:42:43.224Z,23.90
2024-05-09T10:43:43.137Z,23.75
2024-05-09T10:44:43.119Z,24.06
2024-05-09T10:45:43.167Z,23.89
2024-05-09T10:46:43.126Z,23.60
2024-05-09T10:47:43.286Z,23.12
2024-05-09T10:48:43.355Z,23.04
2024-05-09T10:49:43.141Z,23.18
2024-05-09T10:50:43.089Z,23.49
2024-05-09T10:51:43.135Z,23.54
2024-05-09T10:52:43.066Z,23.87
2024-05-09T10:53:43.154Z,24.24
2024-05-09T10:54:43.075Z,24.36
2024-05-09T10:55:43.019Z,24.31
2024-05-09T10:56:43.062Z,24.31
2024-05-09T10:57:43.061Z,24.34
2024-05-09T10:58:43.081Z,24.49
2024-05-09T10:59:43.000Z,24.60
2024-05-09T11:00:43.116Z,24.70
2024-05-09T11:01:43.114Z,24.68
2024-05-09T11:02:43.387Z,24.68
2024-05-09T11:03:43.232Z,24.64
2024-05-09T11:04:43.029Z,24.53
2024-05-09T11:05:43.254Z,24.42
2024-05-09T11:06:42.964Z,24.42
2024-05-09T11:07:42.924Z,24.24
2024-05-09T11:08:42.904Z,23.82
2024-05-09T11:09:42.988Z,23.41
2024-05-09T11:10:43.038Z,23.21
2024-05-09T11:11:42.864Z,23.25
2024-05-09T11:12:42.896Z,23.60
2024-05-09T11:13:42.847Z,23.97
2024-05-09T11:14:42.819Z,24.31
2024-05-09T11:15:42.921Z,24.45
2024-05-09T11:16:42.812Z,24.51
2024-05-09T11:17:43.644Z,24.84
2024-05-09T11:18:42.932Z,24.98
2024-05-09T11:19:42.842Z,24.83
2024-05-09T11:20:42.995Z,24.79
2024-05-09T11:21:43.585Z,24.70
2024-05-09T11:22:42.733Z,24.59
2024-05-09T11:23:43.115Z,24.51
2024-05-09T11:24:42.746Z,24.30
2024-05-09T11:25:42.693Z,24.24
2024-05-09T11:26:42.681Z,24.08
2024-05-09T11:27:43.641Z,24.05
2024-05-09T11:28:42.639Z,24.08
2024-05-09T11:29:43.137Z,24.08
2024-05-09T11:30:42.694Z,24.09
2024-05-09T11:31:42.700Z,24.24
2024-05-09T11:32:42.744Z,24.49
2024-05-09T11:33:42.687Z,24.51
2024-05-09T11:34:42.697Z,24.11
2024-05-09T11:35:42.582Z,24.36
2024-05-09T11:36:42.716Z,24.61
2024-05-09T11:37:42.559Z,24.45
2024-05-09T11:38:42.513Z,24.41
2024-05-09T11:39:42.626Z,24.41
2024-05-09T11:40:42.635Z,24.45
2024-05-09T11:41:42.496Z,24.68
2024-05-09T11:42:42.563Z,25.04
2024-05-09T11:43:42.485Z,25.17
2024-05-09T11:44:42.453Z,25.23
2024-05-09T11:45:42.580Z,25.35
2024-05-09T11:46:42.433Z,25.46
2024-05-09T11:47:42.552Z,25.54
2024-05-09T11:48:42.608Z,25.19
2024-05-09T11:49:42.557Z,24.71
2024-05-09T11:50:42.453Z,24.37
2024-05-09T11:51:42.485Z,24.67
2024-05-09T11:52:42.376Z,24.86
2024-05-09T11:53:42.367Z,24.97
2024-05-09T11:54:42.363Z,24.77
2024-05-09T11:55:42.335Z,25.05
2024-05-09T11:56:42.338Z,25.44
2024-05-09T11:57:42.382Z,25.71
2024-05-09T11:58:42.292Z,25.79
2024-05-09T11:59:42.299Z,25.82
2024-05-09T12:00:42.390Z,25.78
2024-05-09T12:01:42.407Z,25.39
2024-05-09T12:02:42.262Z,25.14
2024-05-09T12:03:42.387Z,24.83
2024-05-09T12:04:42.535Z,24.45
2024-05-09T12:05:42.503Z,24.45
2024-05-09T12:06:42.286Z,24.33
2024-05-09T12:07:42.207Z,24.19
2024-05-09T12:08:42.219Z,24.31
2024-05-09T12:09:42.193Z,24.41
2024-05-09T12:10:42.422Z,24.02
2024-05-09T12:11:42.152Z,24.02
2024-05-09T12:12:42.183Z,24.42
2024-05-09T12:13:42.134Z,24.56
2024-05-09T12:14:42.130Z,24.80
2024-05-09T12:15:42.137Z,24.82
2024-05-09T12:16:42.200Z,25.04
2024-05-09T12:17:42.166Z,25.42
2024-05-09T12:18:42.135Z,25.67
2024-05-09T12:19:42.131Z,25.34
2024-05-09T12:20:42.057Z,25.30
2024-05-09T12:21:42.087Z,25.41
2024-05-09T12:22:42.065Z,25.44
2024-05-09T12:23:42.054Z,25.51
2024-05-09T12:24:42.089Z,25.45
2024-05-09T12:25:42.004Z,25.42
2024-05-09T12:26:42.210Z,25.67
2024-05-09T12:27:42.008Z,25.64
2024-05-09T12:28:42.013Z,25.74
2024-05-09T12:29:41.958Z,25.66
2024-05-09T12:30:42.157Z,25.96
2024-05-09T12:31:41.937Z,26.24
2024-05-09T12:32:41.997Z,26.50
2024-05-09T12:33:41.952Z,26.69
2024-05-09T12:34:41.996Z,26.86
2024-05-09T12:35:44.424Z,27.02
2024-05-09T12:36:41.987Z,27.21
2024-05-09T12:37:41.872Z,26.98
2024-05-09T12:38:41.855Z,26.96
2024-05-09T12:39:41.865Z,26.47
2024-05-09T12:40:42.104Z,26.09
2024-05-09T12:41:41.839Z,25.86
2024-05-09T12:42:41.896Z,25.69
2024-05-09T12:43:41.806Z,25.90
2024-05-09T12:44:41.810Z,26.16
2024-05-09T12:45:41.831Z,26.27
2024-05-09T12:46:41.780Z,25.66
2024-05-09T12:47:41.833Z,25.49
2024-05-09T12:48:41.880Z,25.75
2024-05-09T12:49:41.817Z,25.81
2024-05-09T12:50:42.141Z,25.67
2024-05-09T12:51:41.768Z,25.86
2024-05-09T12:52:41.721Z,25.86
2024-05-09T12:53:41.685Z,26.08
2024-05-09T12:54:41.684Z,26.36
2024-05-09T12:55:48.674Z,26.29
2024-05-09T12:56:41.680Z,26.38